Time;durP1;ratioP1;P1;durP2;ratioP2;P2;SDS_P1;SDS_P2;PMS_P1;PMS_P2;Temp;Humidity;BMP_temperature;BMP_pressure;BME280_temperature;BME280_humidity;BME280_pressure;Samples;Min_cycle;Max_cycle;Signal;HPM_P1;HPM_P2
2023/05/27 00:01:08;;;;;;;13.05;3.72;;;14.30;92.20;;;;;;6107202;23;20029;-89
2023/05/27 00:03:36;;;;;;;12.95;4.25;;;14.30;92.30;;;;;;6107691;23;20327;-88
2023/05/27 00:06:02;;;;;;;14.20;3.95;;;14.30;92.50;;;;;;6155684;23;20002;-89
2023/05/27 00:08:28;;;;;;;13.90;3.60;;;14.30;92.50;;;;;;6131213;23;20037;-89
2023/05/27 00:10:53;;;;;;;15.07;4.10;;;14.20;92.60;;;;;;6131493;23;20005;-87
2023/05/27 00:13:19;;;;;;;9.35;3.10;;;14.20;92.80;;;;;;6188258;23;20005;-89
2023/05/27 00:15:45;;;;;;;15.40;3.92;;;14.20;93.00;;;;;;6138494;23;20005;-88
2023/05/27 00:18:11;;;;;;;11.00;3.13;;;14.10;92.80;;;;;;6189140;23;20001;-89
2023/05/27 00:20:37;;;;;;;17.38;3.50;;;14.10;92.90;;;;;;6162216;23;20031;-89
2023/05/27 00:23:02;;;;;;;16.13;3.45;;;14.10;93.00;;;;;;6187353;23;20012;-89
2023/05/27 00:25:28;;;;;;;12.85;3.67;;;14.10;93.10;;;;;;6162685;23;20092;-88
2023/05/27 00:27:54;;;;;;;13.68;3.25;;;14.00;93.30;;;;;;6187328;23;20012;-88
2023/05/27 00:30:20;;;;;;;14.23;4.00;;;14.00;93.30;;;;;;6187348;23;20012;-89
2023/05/27 00:32:46;;;;;;;15.32;3.28;;;14.00;93.40;;;;;;6187467;23;20327;-90
2023/05/27 00:35:12;;;;;;;13.25;3.40;;;14.00;93.50;;;;;;6187688;23;20004;-89
2023/05/27 00:37:41;;;;;;;12.27;3.55;;;13.90;93.60;;;;;;6193309;23;20028;-88
2023/05/27 00:40:10;;;;;;;11.85;3.10;;;13.90;93.70;;;;;;6199764;23;20001;-90
2023/05/27 00:42:36;;;;;;;17.73;3.53;;;13.90;93.90;;;;;;6139643;23;20009;-90
2023/05/27 00:45:06;;;;;;;12.93;3.80;;;13.90;93.90;;;;;;6189474;23;20005;-89
2023/05/27 00:47:33;;;;;;;17.30;3.65;;;13.90;94.00;;;;;;6138198;23;20013;-90
2023/05/27 00:49:59;;;;;;;17.35;3.60;;;13.80;94.10;;;;;;6162476;23;20009;-90
2023/05/27 00:52:25;;;;;;;12.98;4.32;;;13.80;94.10;;;;;;6138161;23;20032;-90
2023/05/27 00:54:53;;;;;;;16.52;4.25;;;13.80;94.20;;;;;;6187571;23;20005;-90
2023/05/27 00:57:19;;;;;;;13.25;4.40;;;13.70;94.30;;;;;;6187630;23;20005;-90
2023/05/27 00:59:46;;;;;;;20.98;4.57;;;13.70;94.50;;;;;;6188259;23;20007;-90
2023/05/27 01:02:11;;;;;;;17.92;3.53;;;13.70;94.50;;;;;;6187323;23;20007;-89
2023/05/27 01:04:37;;;;;;;15.38;4.32;;;13.70;94.70;;;;;;6137810;23;20032;-90
2023/05/27 01:07:29;;;;;;;14.48;3.88;;;13.70;94.80;;;;;;6187348;23;20009;-90
2023/05/27 01:10:16;;;;;;;12.73;3.97;;;13.60;95.00;;;;;;6187633;23;20021;-89
2023/05/27 01:13:05;;;;;;;12.52;3.90;;;13.60;95.00;;;;;;6186648;23;20032;-90
2023/05/27 01:15:32;;;;;;;15.38;3.95;;;13.50;95.20;;;;;;6186961;23;20005;-89
2023/05/27 01:18:01;;;;;;;11.10;4.00;;;13.50;95.30;;;;;;6162788;23;20096;-89
2023/05/27 01:20:29;;;;;;;14.45;4.22;;;13.50;95.30;;;;;;6186909;23;20427;-90
2023/05/27 01:22:57;;;;;;;18.77;4.38;;;13.50;95.50;;;;;;6164470;23;20001;-90
2023/05/27 01:25:23;;;;;;;14.38;3.75;;;13.40;95.60;;;;;;6138438;23;20005;-88
2023/05/27 01:27:51;;;;;;;17.30;4.68;;;13.40;95.60;;;;;;6138499;23;20323;-89
2023/05/27 01:30:16;;;;;;;16.63;3.78;;;13.40;95.60;;;;;;6138681;23;20009;-89
2023/05/27 01:32:51;;;;;;;15.65;3.83;;;13.40;95.80;;;;;;6162954;23;20089;-90
2023/05/27 01:35:41;;;;;;;17.00;4.03;;;13.30;95.90;;;;;;6189280;23;20008;-90
2023/05/27 01:38:11;;;;;;;15.03;4.30;;;13.30;96.10;;;;;;6187624;23;20005;-89
2023/05/27 01:40:38;;;;;;;15.35;4.35;;;13.30;96.10;;;;;;6187337;23;20244;-90
2023/05/27 01:43:06;;;;;;;16.83;4.43;;;13.20;96.20;;;;;;6188164;23;20029;-89
2023/05/27 01:45:33;;;;;;;16.60;4.13;;;13.20;96.40;;;;;;6200841;23;19997;-89
2023/05/27 01:47:59;;;;;;;18.88;4.22;;;13.20;96.50;;;;;;6203822;23;20005;-90
2023/05/27 01:50:29;;;;;;;17.83;4.70;;;13.20;96.70;;;;;;6187447;23;20005;-90
2023/05/27 01:52:58;;;;;;;14.20;4.18;;;13.10;96.80;;;;;;6188036;23;20073;-90
2023/05/27 01:55:23;;;;;;;18.75;4.10;;;13.10;97.00;;;;;;6187349;23;20005;-89
2023/05/27 01:57:55;;;;;;;18.02;4.93;;;13.10;97.10;;;;;;6137952;23;20047;-90
2023/05/27 02:00:20;;;;;;;21.58;4.57;;;13.10;97.20;;;;;;6139086;23;20428;-90
2023/05/27 02:02:46;;;;;;;23.83;4.50;;;13.10;97.50;;;;;;6188228;23;20009;-88
2023/05/27 02:05:14;;;;;;;18.58;4.88;;;13.00;97.60;;;;;;6162532;23;20012;-90
2023/05/27 02:07:40;;;;;;;15.70;4.20;;;13.00;97.60;;;;;;6187185;23;20084;-90
2023/05/27 02:10:06;;;;;;;14.15;4.47;;;13.00;97.80;;;;;;6188519;23;20332;-89
2023/05/27 02:12:32;;;;;;;19.05;4.35;;;12.90;97.80;;;;;;6190490;23;20008;-90
2023/05/27 02:14:58;;;;;;;17.10;4.85;;;12.90;98.00;;;;;;6166261;23;20020;-90
2023/05/27 02:17:27;;;;;;;20.15;4.20;;;12.90;98.20;;;;;;6187402;23;20009;-90
2023/05/27 02:19:52;;;;;;;16.27;4.32;;;12.90;98.20;;;;;;6138245;23;20029;-90
2023/05/27 02:22:18;;;;;;;17.17;4.28;;;12.80;98.30;;;;;;6187446;23;20005;-90
2023/05/27 02:24:44;;;;;;;13.77;4.40;;;12.80;98.50;;;;;;6188313;23;20005;-91
2023/05/27 02:27:10;;;;;;;15.40;5.00;;;12.80;98.70;;;;;;6151242;23;19993;-91
2023/05/27 02:29:36;;;;;;;19.30;5.05;;;12.80;98.90;;;;;;6188339;23;20001;-91
2023/05/27 02:32:02;;;;;;;16.92;5.25;;;12.70;98.90;;;;;;6213618;23;20008;-90
2023/05/27 02:34:27;;;;;;;15.05;4.45;;;12.70;99.10;;;;;;6213030;23;19982;-89
2023/05/27 02:36:53;;;;;;;15.45;3.80;;;12.70;99.10;;;;;;6188171;23;20031;-89
2023/05/27 02:39:19;;;;;;;15.95;4.38;;;12.70;99.20;;;;;;6188194;23;20005;-90
2023/05/27 02:41:45;;;;;;;15.18;4.20;;;12.60;99.20;;;;;;6206063;23;20036;-89
2023/05/27 02:44:11;;;;;;;17.23;4.53;;;12.60;99.20;;;;;;6197367;23;20468;-89
2023/05/27 02:46:37;;;;;;;15.95;4.15;;;12.60;99.40;;;;;;6186918;23;20089;-89
2023/05/27 02:49:03;;;;;;;15.02;3.90;;;12.50;99.60;;;;;;6161942;23;20026;-91
2023/05/27 02:51:29;;;;;;;12.30;4.20;;;12.50;99.80;;;;;;6161959;23;20061;-89
2023/05/27 02:53:55;;;;;;;14.93;4.35;;;12.50;99.90;;;;;;6187705;23;19997;-90
2023/05/27 02:56:21;;;;;;;18.15;4.53;;;12.50;99.90;;;;;;6187003;23;20008;-91
2023/05/27 02:58:47;;;;;;;13.95;3.90;;;12.50;99.90;;;;;;6137873;23;20006;-90
2023/05/27 03:01:12;;;;;;;16.92;4.95;;;12.40;99.90;;;;;;6188728;23;19997;-89
2023/05/27 03:03:38;;;;;;;17.63;4.82;;;12.40;99.90;;;;;;6202430;23;20007;-90
2023/05/27 03:06:04;;;;;;;19.60;5.13;;;12.40;99.90;;;;;;6186148;23;20024;-89
2023/05/27 03:08:29;;;;;;;14.30;4.13;;;12.40;99.90;;;;;;6185973;23;20001;-90
2023/05/27 03:10:55;;;;;;;18.08;4.20;;;12.30;99.90;;;;;;6186720;23;20036;-88
2023/05/27 03:13:21;;;;;;;16.40;4.47;;;12.30;99.90;;;;;;6161568;23;20012;-89
2023/05/27 03:15:47;;;;;;;19.70;4.90;;;12.30;99.90;;;;;;6187815;23;20068;-87
2023/05/27 03:18:12;;;;;;;14.50;4.38;;;12.30;99.90;;;;;;6140615;23;20009;-88
2023/05/27 03:20:38;;;;;;;14.10;5.03;;;12.20;99.90;;;;;;6143271;23;20001;-90
2023/05/27 03:23:04;;;;;;;21.25;5.03;;;12.20;99.90;;;;;;6162019;23;20005;-89
2023/05/27 03:25:29;;;;;;;17.38;4.80;;;12.20;99.90;;;;;;6161534;23;20108;-89
2023/05/27 03:27:55;;;;;;;15.43;4.63;;;12.20;99.90;;;;;;6136444;23;20042;-89
2023/05/27 03:30:21;;;;;;;16.20;4.63;;;12.10;99.90;;;;;;6187696;23;20001;-88
2023/05/27 03:32:46;;;;;;;17.90;5.40;;;12.10;99.90;;;;;;6161834;23;20005;-89
2023/05/27 03:35:12;;;;;;;16.60;4.63;;;12.10;99.90;;;;;;6161092;23;20055;-89
2023/05/27 03:37:38;;;;;;;16.60;4.80;;;12.10;99.90;;;;;;6137618;23;20005;-89
2023/05/27 03:40:06;;;;;;;16.80;4.25;;;12.10;99.90;;;;;;6161660;23;20005;-88
2023/05/27 03:42:31;;;;;;;16.75;4.70;;;12.00;99.90;;;;;;6137152;23;20017;-89
2023/05/27 03:44:57;;;;;;;14.27;4.35;;;12.00;99.90;;;;;;6186353;23;20012;-89
2023/05/27 03:47:23;;;;;;;15.20;4.78;;;12.00;99.90;;;;;;6164610;23;20411;-88
2023/05/27 03:49:49;;;;;;;20.08;5.07;;;12.00;99.90;;;;;;6167949;23;20025;-89
2023/05/27 03:52:15;;;;;;;18.35;5.07;;;12.00;99.90;;;;;;6141020;23;20013;-89
2023/05/27 03:54:41;;;;;;;22.25;5.05;;;11.90;99.90;;;;;;6143299;23;20507;-90
2023/05/27 03:57:07;;;;;;;22.63;5.22;;;11.90;99.90;;;;;;6196306;23;20009;-89
2023/05/27 03:59:33;;;;;;;17.75;4.43;;;11.90;99.90;;;;;;6165085;23;20032;-89
2023/05/27 04:01:59;;;;;;;16.10;4.95;;;11.90;99.90;;;;;;6189769;23;20435;-89
2023/05/27 04:04:28;;;;;;;15.73;4.75;;;11.90;99.90;;;;;;6189209;23;20040;-89
2023/05/27 04:06:55;;;;;;;29.02;5.32;;;11.80;99.90;;;;;;6164555;23;20060;-89
2023/05/27 04:09:21;;;;;;;19.13;5.47;;;11.80;99.90;;;;;;6190827;23;20005;-90
2023/05/27 04:11:47;;;;;;;20.13;4.88;;;11.80;99.90;;;;;;6164182;23;20024;-90
2023/05/27 04:14:13;;;;;;;14.57;4.10;;;11.80;99.90;;;;;;6190535;23;20446;-89
2023/05/27 04:16:41;;;;;;;19.35;4.75;;;11.80;99.90;;;;;;6163321;23;20412;-89
2023/05/27 04:19:07;;;;;;;13.25;3.95;;;11.80;99.90;;;;;;6167147;23;20013;-90
2023/05/27 04:21:32;;;;;;;17.83;4.82;;;11.80;99.90;;;;;;6141431;23;20005;-89
2023/05/27 04:23:58;;;;;;;16.40;4.43;;;11.80;99.90;;;;;;6166184;23;20029;-89
2023/05/27 04:26:27;;;;;;;17.60;4.15;;;11.80;99.90;;;;;;6140818;23;20327;-89
2023/05/27 04:28:52;;;;;;;22.50;5.28;;;11.80;99.90;;;;;;6165555;23;20084;-89
2023/05/27 04:31:18;;;;;;;14.85;4.50;;;11.70;99.90;;;;;;6190607;23;20331;-89
2023/05/27 04:33:45;;;;;;;20.02;4.65;;;11.80;99.90;;;;;;6165253;23;20008;-89
2023/05/27 04:36:11;;;;;;;16.30;4.68;;;11.80;99.90;;;;;;6190750;23;20104;-89
2023/05/27 04:38:37;;;;;;;15.70;4.35;;;11.80;99.90;;;;;;6189528;23;20047;-89
2023/05/27 04:41:04;;;;;;;12.75;4.20;;;11.70;99.90;;;;;;6188804;23;20498;-89
2023/05/27 04:43:30;;;;;;;14.75;4.07;;;11.80;99.90;;;;;;6191409;23;20419;-90
2023/05/27 04:45:59;;;;;;;18.42;4.88;;;11.70;99.90;;;;;;6188487;23;20001;-89
2023/05/27 04:48:25;;;;;;;18.63;4.72;;;11.70;99.90;;;;;;6187996;23;20008;-90
2023/05/27 04:50:53;;;;;;;18.63;4.85;;;11.70;99.90;;;;;;6162816;23;20013;-89
2023/05/27 04:53:19;;;;;;;16.88;4.63;;;11.80;99.90;;;;;;6164052;23;20016;-90
2023/05/27 04:55:45;;;;;;;14.27;4.70;;;11.70;99.90;;;;;;6187914;23;20093;-89
2023/05/27 04:58:11;;;;;;;20.90;5.43;;;11.80;99.90;;;;;;6162820;23;20013;-90
2023/05/27 05:00:49;;;;;;;22.25;5.38;;;11.80;99.90;;;;;;6187975;23;20036;-89
2023/05/27 05:03:20;;;;;;;19.70;5.68;;;11.80;99.90;;;;;;6189509;23;20004;-89
2023/05/27 05:05:53;;;;;;;18.52;4.70;;;11.80;99.90;;;;;;6188377;23;20060;-89
2023/05/27 05:08:20;;;;;;;19.60;5.28;;;11.80;99.90;;;;;;6187246;23;20096;-89
2023/05/27 05:10:50;;;;;;;19.50;4.75;;;11.80;99.90;;;;;;6187580;23;20009;-89
2023/05/27 05:13:16;;;;;;;20.73;4.68;;;11.80;99.90;;;;;;6188932;23;20021;-89
2023/05/27 05:15:45;;;;;;;20.10;4.88;;;11.80;99.90;;;;;;6188302;23;20060;-89
2023/05/27 05:18:12;;;;;;;20.33;4.97;;;11.90;99.90;;;;;;6188095;23;20083;-89
2023/05/27 05:20:37;;;;;;;15.95;5.05;;;11.90;99.90;;;;;;6137971;23;20012;-89
2023/05/27 05:23:03;;;;;;;19.50;5.05;;;11.90;99.90;;;;;;6162412;23;20037;-89
2023/05/27 05:25:30;;;;;;;22.70;5.47;;;11.90;99.90;;;;;;6187466;23;20012;-90
2023/05/27 05:27:56;;;;;;;18.38;4.88;;;11.90;99.90;;;;;;6192704;23;20044;-90
2023/05/27 05:30:22;;;;;;;16.75;5.57;;;12.00;99.90;;;;;;6140891;23;20091;-89
2023/05/27 05:32:48;;;;;;;19.05;5.20;;;12.00;99.90;;;;;;6138637;23;20001;-89
2023/05/27 05:35:14;;;;;;;18.95;4.85;;;12.00;99.90;;;;;;6186908;23;20096;-90
2023/05/27 05:37:39;;;;;;;18.20;4.72;;;12.00;99.90;;;;;;6138068;23;20009;-89
2023/05/27 05:40:06;;;;;;;14.60;4.00;;;12.10;99.90;;;;;;6138120;23;20423;-89
2023/05/27 05:42:31;;;;;;;17.45;5.13;;;12.10;99.90;;;;;;6189444;23;20001;-89
2023/05/27 05:44:57;;;;;;;19.17;4.63;;;12.10;99.90;;;;;;6197466;23;20012;-89
2023/05/27 05:47:23;;;;;;;14.32;4.32;;;12.10;99.90;;;;;;6172997;23;20011;-89
2023/05/27 05:49:48;;;;;;;20.75;5.15;;;12.10;99.90;;;;;;6194196;23;20004;-87
2023/05/27 05:52:14;;;;;;;17.30;5.55;;;12.20;99.90;;;;;;6146601;23;20009;-89
2023/05/27 05:54:59;;;;;;;16.52;4.55;;;12.20;99.90;;;;;;6205216;23;19985;-89
2023/05/27 05:57:25;;;;;;;19.48;5.00;;;12.20;99.90;;;;;;6213317;23;20005;-89
2023/05/27 05:59:50;;;;;;;19.67;5.00;;;12.20;99.90;;;;;;6214271;23;20012;-89
2023/05/27 06:02:16;;;;;;;17.25;4.93;;;12.30;99.90;;;;;;6182756;23;20001;-91
2023/05/27 06:04:44;;;;;;;18.65;4.88;;;12.30;99.90;;;;;;6161124;23;20090;-89
2023/05/27 06:07:13;;;;;;;15.88;4.70;;;12.30;99.90;;;;;;6188379;23;20001;-89
2023/05/27 06:09:39;;;;;;;13.23;4.18;;;12.30;99.90;;;;;;6213264;23;20267;-90
2023/05/27 06:12:06;;;;;;;19.02;5.35;;;12.40;99.90;;;;;;6212486;23;20061;-87
2023/05/27 06:14:32;;;;;;;17.40;4.72;;;12.40;99.90;;;;;;6213485;23;20001;-88
2023/05/27 06:16:57;;;;;;;16.38;5.28;;;12.40;99.90;;;;;;6213203;23;19987;-89
2023/05/27 06:19:23;;;;;;;17.70;4.82;;;12.40;99.90;;;;;;6212772;23;20001;-89
2023/05/27 06:21:49;;;;;;;15.35;5.47;;;12.50;99.90;;;;;;6211452;23;20044;-89
2023/05/27 06:24:15;;;;;;;16.27;4.65;;;12.50;99.90;;;;;;6160413;23;20005;-89
2023/05/27 06:26:41;;;;;;;20.52;4.68;;;12.50;99.90;;;;;;6202835;23;20029;-89
2023/05/27 06:29:06;;;;;;;20.48;5.22;;;12.60;99.90;;;;;;6192439;23;20032;-89
2023/05/27 06:31:33;;;;;;;15.85;4.68;;;12.60;99.90;;;;;;6188570;23;20047;-89
2023/05/27 06:34:12;;;;;;;14.18;4.50;;;12.70;99.90;;;;;;6189617;23;20112;-88
2023/05/27 06:36:37;;;;;;;20.20;5.35;;;12.70;99.90;;;;;;6140591;23;20009;-89
2023/05/27 06:39:03;;;;;;;18.08;5.15;;;12.70;99.90;;;;;;6162270;23;20427;-89
2023/05/27 06:41:29;;;;;;;19.27;5.63;;;12.80;99.90;;;;;;6163610;23;20005;-89
2023/05/27 06:43:59;;;;;;;19.45;5.28;;;12.80;99.90;;;;;;6138502;23;20009;-89
2023/05/27 06:46:26;;;;;;;16.75;5.50;;;12.90;99.90;;;;;;6139183;23;20063;-89
2023/05/27 06:48:52;;;;;;;20.13;5.32;;;12.90;99.90;;;;;;6186715;23;20013;-88
2023/05/27 06:51:18;;;;;;;12.85;4.60;;;12.90;99.90;;;;;;6187277;23;20073;-90
2023/05/27 06:53:44;;;;;;;17.20;5.55;;;13.00;99.90;;;;;;6187073;23;20080;-89
2023/05/27 06:56:09;;;;;;;12.95;5.20;;;13.00;99.90;;;;;;6185793;23;20339;-89
2023/05/27 06:58:35;;;;;;;17.58;4.93;;;13.10;99.90;;;;;;6137233;23;20067;-89
2023/05/27 07:01:01;;;;;;;24.85;5.47;;;13.10;99.90;;;;;;6187361;23;20005;-89
2023/05/27 07:03:54;;;;;;;17.85;5.53;;;13.20;99.90;;;;;;5063637;27;1377402;-88
2023/05/27 07:06:19;;;;;;;16.75;5.38;;;13.20;99.90;;;;;;5075479;28;20029;-88
2023/05/27 07:08:45;;;;;;;14.90;4.65;;;13.30;99.90;;;;;;5091239;28;20032;-89
2023/05/27 07:11:11;;;;;;;13.90;5.07;;;13.30;99.90;;;;;;5074588;28;20023;-89
2023/05/27 07:13:37;;;;;;;17.33;5.50;;;13.40;99.90;;;;;;5091226;28;20028;-88
2023/05/27 07:16:02;;;;;;;16.65;5.45;;;13.40;99.90;;;;;;5092674;28;20029;-89
2023/05/27 07:18:28;;;;;;;20.35;5.55;;;13.50;99.90;;;;;;5075038;28;20033;-89
2023/05/27 07:20:56;;;;;;;13.02;4.38;;;13.50;99.90;;;;;;5081715;28;20036;-89
2023/05/27 07:23:25;;;;;;;14.88;5.15;;;13.60;99.90;;;;;;5083414;28;20024;-90
2023/05/27 07:25:50;;;;;;;18.20;5.03;;;13.70;99.90;;;;;;5093876;28;20032;-88
2023/05/27 07:28:16;;;;;;;16.67;5.00;;;13.70;99.90;;;;;;5090609;28;20020;-90
2023/05/27 07:30:44;;;;;;;18.63;5.45;;;13.80;99.90;;;;;;5090980;28;20024;-89
2023/05/27 07:33:16;;;;;;;13.25;4.60;;;13.80;99.90;;;;;;5090660;28;20021;-89
2023/05/27 07:35:42;;;;;;;16.63;4.95;;;13.90;99.90;;;;;;5092411;28;20024;-89
2023/05/27 07:38:08;;;;;;;15.70;5.20;;;14.00;99.90;;;;;;5090725;28;20025;-91
2023/05/27 07:40:34;;;;;;;18.65;5.18;;;14.00;99.90;;;;;;5093779;28;20025;-89
2023/05/27 07:43:02;;;;;;;18.50;5.03;;;14.10;99.90;;;;;;5076995;28;20031;-88
2023/05/27 07:45:28;;;;;;;16.95;4.88;;;14.10;99.90;;;;;;5093728;28;20488;-88
2023/05/27 07:47:56;;;;;;;19.48;5.63;;;14.20;99.90;;;;;;5092423;28;20024;-89
2023/05/27 07:50:22;;;;;;;16.42;5.15;;;14.30;99.90;;;;;;5076185;28;20032;-89
2023/05/27 07:56:09;;;;;;;17.90;4.90;;;14.40;99.90;;;;;;5092790;28;20081;-88
2023/05/27 07:58:35;;;;;;;17.98;5.30;;;14.50;99.90;;;;;;5092022;28;20028;-88
2023/05/27 08:01:01;;;;;;;15.55;4.63;;;14.50;99.90;;;;;;5058995;28;20028;-89
2023/05/27 08:03:27;;;;;;;15.68;5.07;;;14.60;99.90;;;;;;5090825;28;20131;-90
2023/05/27 08:05:52;;;;;;;14.73;5.72;;;14.70;99.90;;;;;;5092309;28;20037;-89
2023/05/27 08:08:18;;;;;;;16.90;5.15;;;14.80;99.90;;;;;;5092769;28;20368;-90
2023/05/27 08:10:45;;;;;;;17.63;5.63;;;14.80;99.90;;;;;;5092444;28;20025;-90
2023/05/27 08:13:11;;;;;;;17.40;5.43;;;14.90;99.90;;;;;;5057093;28;20056;-91
2023/05/27 08:15:37;;;;;;;13.95;4.88;;;14.90;99.90;;;;;;5062548;28;20029;-87
2023/05/27 08:18:02;;;;;;;18.85;5.57;;;15.00;99.90;;;;;;5047309;28;20036;-92
2023/05/27 08:20:28;;;;;;;16.88;6.07;;;15.00;99.90;;;;;;5060381;28;20457;-92
2023/05/27 08:22:54;;;;;;;15.35;5.13;;;15.10;99.90;;;;;;5044037;28;20036;-92
2023/05/27 08:25:20;;;;;;;17.08;5.28;;;15.20;99.90;;;;;;5060254;28;20036;-92
2023/05/27 08:27:50;;;;;;;16.17;4.90;;;15.20;99.90;;;;;;5077035;28;20488;-92
2023/05/27 08:30:17;;;;;;;20.33;6.47;;;15.30;99.90;;;;;;5055884;28;20029;-93
2023/05/27 08:32:43;;;;;;;17.58;4.93;;;15.40;99.90;;;;;;5057072;28;20476;-92
2023/05/27 08:35:10;;;;;;;16.23;5.25;;;15.50;99.90;;;;;;5056680;28;20017;-90
2023/05/27 08:37:37;;;;;;;19.23;5.50;;;15.50;99.90;;;;;;5058477;28;20021;-92
2023/05/27 08:40:07;;;;;;;12.38;5.18;;;15.60;99.90;;;;;;5059381;28;20059;-94
2023/05/27 08:42:33;;;;;;;15.88;4.80;;;15.70;99.90;;;;;;5060161;28;20017;-95
2023/05/27 08:45:00;;;;;;;15.30;5.03;;;15.70;99.90;;;;;;5060460;28;20037;-92
2023/05/27 08:47:28;;;;;;;18.27;5.68;;;15.80;99.90;;;;;;5059076;28;20021;-92
2023/05/27 08:49:54;;;;;;;17.20;4.88;;;15.90;99.90;;;;;;5057985;28;20036;-94
2023/05/27 08:52:20;;;;;;;17.55;5.38;;;15.90;99.90;;;;;;5058504;28;20033;-93
2023/05/27 08:54:47;;;;;;;16.35;5.40;;;16.00;99.90;;;;;;5057958;28;20018;-94
2023/05/27 08:57:15;;;;;;;20.38;6.00;;;16.00;99.90;;;;;;5057837;28;20528;-94
2023/05/27 08:59:42;;;;;;;15.02;5.00;;;16.10;99.90;;;;;;5058124;28;20462;-91
2023/05/27 09:02:14;;;;;;;16.50;5.88;;;16.20;99.90;;;;;;5057645;28;20025;-96
2023/05/27 09:04:40;;;;;;;22.23;6.13;;;16.20;99.90;;;;;;5072037;28;20576;-95
2023/05/27 09:07:07;;;;;;;15.32;4.97;;;16.30;99.90;;;;;;5090209;28;20031;-95
2023/05/27 09:09:35;;;;;;;18.55;5.38;;;16.40;99.90;;;;;;5098068;28;20027;-95
2023/05/27 09:12:02;;;;;;;16.30;5.85;;;16.40;99.90;;;;;;5086433;28;20029;-92
2023/05/27 09:14:42;;;;;;;;;;;;;;;;;;;;;
2023/05/27 09:17:11;;;;;;;13.95;5.20;;;16.50;99.90;;;;;;5057791;28;20492;-93
2023/05/27 09:19:41;;;;;;;18.00;5.72;;;16.60;99.90;;;;;;5041250;28;20095;-92
2023/05/27 09:22:09;;;;;;;21.35;6.80;;;16.60;99.90;;;;;;5042093;28;20033;-94
2023/05/27 09:24:39;;;;;;;18.45;5.88;;;16.70;99.90;;;;;;5058561;28;20025;-94
2023/05/27 09:27:12;;;;;;;15.25;5.32;;;16.80;99.90;;;;;;5043164;28;20067;-94
2023/05/27 09:29:40;;;;;;;17.10;6.18;;;16.80;99.90;;;;;;5058042;28;20032;-89
2023/05/27 09:32:07;;;;;;;15.27;6.10;;;16.90;99.90;;;;;;5059407;28;20033;-89
2023/05/27 09:41:26;;;;;;;19.63;6.00;;;17.10;99.90;;;;;;5058487;28;20086;-91
2023/05/27 09:44:00;;;;;;;16.67;5.40;;;17.20;99.90;;;;;;5056804;28;20121;-91
2023/05/27 09:47:26;;;;;;;19.55;5.95;;;17.20;99.90;;;;;;5041970;28;20033;-90
2023/05/27 09:50:35;;;;;;;14.20;5.60;;;17.30;99.90;;;;;;5074248;28;20017;-87
2023/05/27 09:53:02;;;;;;;17.65;6.10;;;17.40;99.90;;;;;;5078943;28;20024;-88
2023/05/27 09:55:59;;;;;;;19.15;6.38;;;17.40;99.90;;;;;;5078966;28;20055;-86
2023/05/27 09:58:25;;;;;;;15.05;5.00;;;17.50;99.90;;;;;;5065705;28;20044;-91
2023/05/27 10:01:13;;;;;;;15.38;5.70;;;17.60;99.90;;;;;;5078501;28;20044;-88
2023/05/27 10:04:05;;;;;;;21.15;6.07;;;17.60;99.90;;;;;;5076522;28;20088;-89
2023/05/27 10:06:32;;;;;;;17.17;5.60;;;17.70;99.90;;;;;;5071675;28;20083;-88
2023/05/27 10:12:10;;;;;;;15.75;5.82;;;17.80;99.90;;;;;;5053799;28;20069;-87
2023/05/27 10:21:27;;;;;;;15.70;5.88;;;18.00;99.90;;;;;;5055135;28;20041;-89
2023/05/27 10:24:01;;;;;;;12.43;5.28;;;18.10;99.90;;;;;;5054516;28;20124;-88
2023/05/27 10:29:58;;;;;;;15.02;5.30;;;18.20;99.90;;;;;;5056003;28;20078;-90
2023/05/27 10:35:51;;;;;;;13.98;4.63;;;18.40;99.90;;;;;;5055135;28;20000;-89
2023/05/27 10:38:20;;;;;;;13.90;4.63;;;18.40;99.90;;;;;;5054357;28;20051;-90
2023/05/27 10:44:30;;;;;;;19.25;5.30;;;18.50;99.90;;;;;;5093598;28;20055;-85
2023/05/27 10:47:03;;;;;;;18.63;5.78;;;18.60;99.90;;;;;;5075095;28;20111;-85
2023/05/27 10:49:38;;;;;;;16.33;5.10;;;18.70;99.90;;;;;;5059860;28;20033;-83
2023/05/27 10:52:16;;;;;;;18.25;5.47;;;18.70;99.90;;;;;;5056419;28;20045;-85
2023/05/27 10:54:44;;;;;;;17.17;5.40;;;18.80;99.90;;;;;;5055362;28;20021;-83
2023/05/27 10:57:10;;;;;;;23.50;5.43;;;18.80;99.90;;;;;;5053479;28;20044;-84
2023/05/27 10:59:44;;;;;;;17.70;5.65;;;18.90;99.90;;;;;;5055282;28;20048;-84
2023/05/27 11:02:12;;;;;;;17.58;4.60;;;19.00;99.90;;;;;;5072119;28;20067;-85
2023/05/27 11:04:38;;;;;;;22.45;5.72;;;19.00;99.90;;;;;;5071267;28;20047;-87
2023/05/27 11:07:04;;;;;;;12.68;5.10;;;19.10;99.90;;;;;;5058619;28;20029;-85
2023/05/27 11:09:31;;;;;;;17.52;5.30;;;19.20;99.90;;;;;;5036291;28;20381;-86
2023/05/27 11:12:01;;;;;;;18.38;5.50;;;19.20;99.90;;;;;;5052534;28;20029;-85
2023/05/27 11:14:27;;;;;;;18.20;5.20;;;19.20;99.90;;;;;;5064106;28;20012;-83
2023/05/27 11:16:53;;;;;;;15.77;5.65;;;19.30;99.90;;;;;;5052169;28;20387;-87
2023/05/27 11:19:20;;;;;;;13.07;5.20;;;19.30;99.90;;;;;;5074467;28;20032;-85
2023/05/27 11:21:48;;;;;;;14.27;5.32;;;19.40;99.90;;;;;;5073135;28;20036;-85
2023/05/27 11:24:16;;;;;;;12.15;5.28;;;19.40;99.90;;;;;;5074136;28;20423;-84
2023/05/27 11:26:47;;;;;;;13.07;4.80;;;19.50;99.90;;;;;;5072726;28;20036;-86
2023/05/27 11:29:14;;;;;;;14.90;4.97;;;19.50;99.90;;;;;;5072183;28;20431;-87
2023/05/27 11:31:40;;;;;;;12.52;4.60;;;19.60;99.90;;;;;;5072457;28;20029;-86
2023/05/27 11:34:19;;;;;;;17.08;4.97;;;19.60;99.90;;;;;;5076498;28;20033;-90
2023/05/27 11:36:45;;;;;;;14.40;5.75;;;19.70;99.90;;;;;;5052945;28;20367;-86
2023/05/27 11:39:18;;;;;;;12.73;5.20;;;19.80;99.90;;;;;;5072243;28;20033;-85
2023/05/27 11:41:56;;;;;;;14.90;5.45;;;19.90;99.90;;;;;;5073256;28;20468;-85
2023/05/27 11:44:23;;;;;;;13.98;4.85;;;19.90;99.90;;;;;;5072679;28;20037;-85
2023/05/27 11:46:50;;;;;;;14.25;4.78;;;20.00;99.90;;;;;;5056776;28;20074;-88
2023/05/27 11:49:18;;;;;;;17.67;6.05;;;20.00;99.90;;;;;;5097723;28;20024;-87
2023/05/27 11:51:48;;;;;;;18.83;5.57;;;20.10;99.90;;;;;;5079912;28;20035;-87
2023/05/27 11:54:23;;;;;;;13.83;4.87;;;20.10;99.90;;;;;;5076525;28;20107;-86
2023/05/27 11:56:49;;;;;;;17.40;5.50;;;20.20;99.90;;;;;;5073420;28;20054;-86
2023/05/27 11:59:15;;;;;;;12.70;5.78;;;20.30;99.90;;;;;;5066434;28;20024;-86
2023/05/27 12:01:42;;;;;;;16.23;4.90;;;20.30;99.90;;;;;;5076202;28;20021;-90
2023/05/27 12:04:07;;;;;;;12.45;4.88;;;20.30;99.90;;;;;;5075749;28;20048;-88
2023/05/27 12:06:33;;;;;;;17.17;5.22;;;20.40;99.90;;;;;;5075999;28;20046;-90
2023/05/27 12:09:01;;;;;;;19.67;4.72;;;20.50;99.90;;;;;;5044879;28;20024;-91
2023/05/27 12:11:52;;;;;;;21.30;5.32;;;20.50;99.90;;;;;;5062161;28;20025;-92
2023/05/27 12:14:26;;;;;;;15.13;4.82;;;20.60;99.90;;;;;;5064141;28;20028;-92
2023/05/27 12:17:00;;;;;;;14.88;5.22;;;20.60;99.90;;;;;;5076923;28;20025;-92
2023/05/27 12:19:34;;;;;;;12.98;4.63;;;20.70;99.90;;;;;;5077023;28;20031;-92
2023/05/27 12:22:02;;;;;;;12.73;4.40;;;20.80;99.90;;;;;;5060363;28;20036;-92
2023/05/27 12:24:30;;;;;;;14.48;4.68;;;20.80;99.90;;;;;;5060536;28;20020;-91
2023/05/27 12:27:07;;;;;;;;;;;;;;;;;;;;;
2023/05/27 12:29:34;;;;;;;14.38;5.50;;;20.90;99.90;;;;;;5078699;28;20051;-95
2023/05/27 12:32:02;;;;;;;14.88;4.00;;;21.00;99.90;;;;;;5079281;28;20017;-95
2023/05/27 12:34:28;;;;;;;12.82;4.28;;;21.00;99.90;;;;;;5075043;28;20026;-86
2023/05/27 12:36:54;;;;;;;11.43;4.18;;;21.10;99.90;;;;;;5066506;28;20108;-84
2023/05/27 12:39:20;;;;;;;13.43;4.30;;;21.20;99.90;;;;;;5055005;28;20025;-84
2023/05/27 12:41:46;;;;;;;11.38;4.32;;;21.20;99.90;;;;;;5038527;28;20082;-86
2023/05/27 12:44:11;;;;;;;13.02;4.18;;;21.30;99.90;;;;;;5055580;28;20033;-86
2023/05/27 12:46:38;;;;;;;13.05;4.28;;;21.30;99.90;;;;;;5059983;28;20040;-89
2023/05/27 12:49:03;;;;;;;15.02;5.40;;;21.40;99.90;;;;;;5063343;28;20024;-87
2023/05/27 12:51:30;;;;;;;12.52;4.47;;;21.40;99.90;;;;;;5059260;28;20033;-86
2023/05/27 12:53:56;;;;;;;13.23;5.07;;;21.50;99.90;;;;;;5055707;28;20021;-87
2023/05/27 12:56:22;;;;;;;12.57;4.53;;;21.50;99.90;;;;;;5054819;28;20024;-86
2023/05/27 12:58:47;;;;;;;13.73;4.63;;;21.60;99.40;;;;;;5065143;28;20111;-89
2023/05/27 13:01:13;;;;;;;12.85;4.75;;;21.60;99.00;;;;;;5046476;28;20060;-88
2023/05/27 13:03:39;;;;;;;11.63;3.95;;;21.70;99.60;;;;;;5085149;28;20110;-88
2023/05/27 13:06:05;;;;;;;13.43;4.45;;;21.70;99.30;;;;;;5066475;28;20032;-88
2023/05/27 13:08:31;;;;;;;12.63;4.22;;;21.80;99.00;;;;;;5081651;28;20094;-86
2023/05/27 13:10:56;;;;;;;12.38;4.40;;;21.90;99.00;;;;;;5080552;28;20489;-87
2023/05/27 13:13:22;;;;;;;14.27;4.32;;;21.90;99.10;;;;;;5057971;28;20029;-87